18 de agosto de 2022

Hora Código Tiempo Temp. Visibilidad Cielo nuboso Viento METAR/SPECI
21:30
V
20 °C 10 km+ 3.300 ft 310° 310° 8 kt METAR LFBD 181930Z AUTO 31008KT 270V340 9999 SCT022 BKN033 20/16 Q1019 TEMPO BKN014
21:00
V
20 °C 10 km+ - 320° 320° 10 kt METAR LFBD 181900Z AUTO 32010KT 9999 FEW021 20/16 Q1019 NOSIG
20:30
V
21 °C 10 km+ 3.900 ft 320° 320° 10 kt METAR LFBD 181830Z AUTO 32010KT 290V010 9999 FEW026 BKN039 21/16 Q1019 NOSIG
20:00
V
21 °C 10 km+ - 320° 320° 12 kt METAR LFBD 181800Z AUTO 32012KT 290V350 9999 FEW031 SCT038 21/15 Q1018 NOSIG
19:30
V
23 °C 10 km+ 4.000 ft 320° 320° 13 kt METAR LFBD 181730Z AUTO 32013KT 9999 FEW031 BKN040 23/15 Q1018 NOSIG
19:00
V
23 °C 10 km+ 3.600 ft 310° 310° 13 kt METAR LFBD 181700Z AUTO 31013KT 290V360 9999 SCT030 BKN036 23/15 Q1018 NOSIG
18:30
V
24 °C 10 km+ - 300° 300° 15 kt METAR LFBD 181630Z AUTO 30015KT 9999 FEW038 24/15 Q1018 NOSIG
18:00
V
25 °C 10 km+ - 300° 300° 14 kt METAR LFBD 181600Z AUTO 30014KT 270V330 9999 FEW038 25/14 Q1017 NOSIG
17:30
V
24 °C 10 km+ - 300° 300° 14 kt METAR LFBD 181530Z AUTO 30014KT 270V340 9999 FEW040 24/14 Q1017 NOSIG
17:00
V
26 °C 10 km+ - 310° 310° 13 kt METAR LFBD 181500Z AUTO 31013KT 9999 FEW040/// ///CB 26/14 Q1017 BECMG NSC
16:30
V
26 °C 10 km+ 9.400 ft 300° 300° 15 kt METAR LFBD 181430Z AUTO 30015KT 9999 FEW041/// SCT049/// BKN094/// //////CB 26/14 Q1017 BECMG NSC
16:00
V
25 °C 10 km+ 7.200 ft 300° 300° 13 kt METAR LFBD 181400Z AUTO 30013KT 270V340 9999 SCT042/// BKN072/// OVC090/// ///CB 25/14 Q1017 TEMPO 4000 -SHRA BECMG NSC
15:30
V
24 °C 10 km+ 5.600 ft 290° 290° 12 kt METAR LFBD 181330Z AUTO 29012KT 260V340 9999 SCT036/// SCT047/// BKN056/// ///TCU 24/15 Q1017 TEMPO 4000 -SHRA BECMG NSC
15:00
V
24 °C 10 km+ 10.000 ft 310° 310° 9 kt METAR LFBD 181300Z AUTO 31009KT 260V340 9999 FEW046 BKN100 24/16 Q1017 TEMPO 4000 -SHRA BKN025TCU
14:30
V
24 °C 10 km+ 8.800 ft 280° 280° 8 kt METAR LFBD 181230Z AUTO 28008KT 9999 FEW028/// SCT074/// BKN088/// ///CB 24/16 Q1017 TEMPO 4000 SHRA
14:00
V
23 °C 10 km+ - 290° 290° 3 kt METAR LFBD 181200Z AUTO 29003KT 230V040 9999 //////CB 23/16 Q1017 TEMPO 4000 SHRA
13:30
V
20 °C 10 km+ - Var Var 2 kt METAR LFBD 181130Z AUTO VRB02KT 9999 ///CB 20/16 Q1017 TEMPO 4000 SHRA
13:00
V
20 °C 10 km+ 4.600 ft 310° 310° 9 kt METAR LFBD 181100Z AUTO 31009KT 9999 -RA FEW026/// SCT035/// BKN046/// ///CB 20/16 Q1017 TEMPO 4000 SHRA
12:30
V
23 °C 10 km+ 3.500 ft 270° 270° 10 kt METAR LFBD 181030Z AUTO 27010KT 9999 BKN035/// BKN046/// BKN060/// //////CB 23/16 Q1017 TEMPO 4000 SHRA BECMG 33010KT
12:00
V
23 °C 10 km+ - 020° 020° 8 kt METAR LFBD 181000Z AUTO 02008KT 350V060 9999 SCT029/// SCT035/// //////CB 23/15 Q1017 TEMPO 4000 SHRA
11:30
V
23 °C 10 km+ 3.000 ft 330° 330° 7 kt METAR LFBD 180930Z AUTO 33007KT 310V040 9999 BKN030/// BKN056/// ///TCU 23/15 Q1017 TEMPO 4000 SHRA
11:00
M
22 °C 10 km+ 2.600 ft 350° 350° 6 kt METAR LFBD 180900Z AUTO 35006KT 320V040 9999 BKN026 BKN032 BKN040 22/15 Q1016 TEMPO 4000 SHRA BKN030TCU
10:30
V
21 °C 10 km+ - 320° 320° 6 kt METAR LFBD 180830Z AUTO 32006KT 280V020 9999 SCT021 SCT026 21/15 Q1016 TEMPO 4000 SHRA BKN030TCU
10:00
V
21 °C 10 km+ - 330° 330° 4 kt METAR LFBD 180800Z AUTO 33004KT 280V020 9999 FEW015 21/17 Q1016 TEMPO 4000 SHRA BKN030TCU
09:30
V
19 °C 10 km+ - Var Var 2 kt METAR LFBD 180730Z AUTO VRB02KT CAVOK 19/16 Q1016 TEMPO 4000 SHRA BKN030TCU
09:00
V
17 °C 10 km+ - Var Var 2 kt METAR LFBD 180700Z AUTO VRB02KT CAVOK 17/16 Q1016 NOSIG
08:30
I
16 °C 2,2 km - 220° 220° 1 kt METAR LFBD 180630Z AUTO 22001KT 9999 2200 NSC 16/16 Q1016 BECMG 33010KT
08:00
L
15 °C 1,4 km - 260° 260° 2 kt METAR LFBD 180600Z AUTO 26002KT 9999 1400 R23/P2300 R05/1700D R29/P2300 FEW018 15/15 Q1016 TEMPO 1200 BCFG BECMG 33010KT
07:30
V
15 °C 10 km+ - Var 000° 0 kt METAR LFBD 180530Z AUTO 00000KT 9999 R05/1000U FEW023 15/14 Q1015 TEMPO 1200 BCFG BECMG 33010KT
07:00
L
15 °C 1,1 km - Var 000° 0 kt METAR LFBD 180500Z AUTO 00000KT 9999 1100 R23/P2300 R05/1400D R29/P2300 SCT020 15/14 Q1015 TEMPO 2000 BR BKN008
06:30
L
15 °C 900 m - Var Var 1 kt METAR LFBD 180430Z AUTO VRB01KT 9999 0900 R23/P2300 R05/1300D R29/P2300 BCFG SCT020 15/14 Q1015 TEMPO 2000 BR BKN008
06:00
I
15 °C 2,3 km 1.700 ft 240° 240° 3 kt METAR LFBD 180400Z AUTO 24003KT 9999 2300 BKN017 15/15 Q1015 TEMPO 2000 BR BKN008
05:30
L
16 °C 1,2 km - 240° 240° 4 kt METAR LFBD 180330Z AUTO 24004KT 9999 1200 R23/P2300 R05/1100D R29/P2300 FEW016 16/15 Q1015 TEMPO 2000 BR BKN008
05:00
M
16 °C 10 km+ 1.700 ft 230° 230° 5 kt METAR LFBD 180300Z AUTO 23005KT 9999 BKN017/// ///TCU 16/15 Q1015 TEMPO 2000 BR BKN008
04:30
V
16 °C 10 km+ - 250° 250° 4 kt METAR LFBD 180230Z AUTO 25004KT 9999 SCT018 16/15 Q1015 TEMPO 2000 BR BKN008
04:00
L
16 °C 1,2 km 1.800 ft 240° 240° 3 kt METAR LFBD 180200Z AUTO 24003KT 9999 1200 R23/P2300 R05/1600D R29/P2300 BKN018 16/15 Q1015 TEMPO 0800 BCFG
03:30
L
16 °C 900 m - 250° 250° 4 kt METAR LFBD 180130Z AUTO 25004KT 9999 0900 R23/P2300 R05/1100D R29/P2300 BCFG FEW018 16/15 Q1015 TEMPO 2000 BR BKN008
03:00
V
16 °C 10 km+ - Var Var 2 kt METAR LFBD 180100Z AUTO VRB02KT 9999 FEW018 SCT062 16/15 Q1015 TEMPO 2000 BR BKN008
02:30
V
16 °C 10 km+ - Var 000° 0 kt METAR LFBD 180030Z AUTO 00000KT CAVOK 16/15 Q1015 TEMPO 2000 BR BKN008
02:00
I
16 °C 1,7 km - Var 000° 0 kt METAR LFBD 180000Z AUTO 00000KT 9999 1700 NSC 16/15 Q1015 NOSIG
01:30
V
17 °C 10 km+ - Var 000° 0 kt METAR LFBD 172330Z AUTO 00000KT CAVOK 17/15 Q1015 NOSIG
01:00
V
17 °C 10 km+ - Var Var 2 kt METAR LFBD 172300Z AUTO VRB02KT CAVOK 17/15 Q1015 NOSIG
00:30
V
18 °C 10 km+ - 240° 240° 3 kt METAR LFBD 172230Z AUTO 24003KT CAVOK 18/16 Q1015 NOSIG
00:00
V
18 °C 10 km+ - 250° 250° 4 kt METAR LFBD 172200Z AUTO 25004KT CAVOK 18/15 Q1015 NOSIG

17 de agosto de 2022

Hora Código Tiempo Temp. Visibilidad Cielo nuboso Viento METAR/SPECI
23:30
V
18 °C 10 km+ - 250° 250° 4 kt METAR LFBD 172130Z AUTO 25004KT 9999 //////TCU 18/15 Q1015 BECMG BKN030
23:00
V
19 °C 10 km+ - 250° 250° 3 kt METAR LFBD 172100Z AUTO 25003KT CAVOK 19/15 Q1014 NOSIG
22:30
V
19 °C 10 km+ - 270° 270° 3 kt METAR LFBD 172030Z AUTO 27003KT CAVOK 19/16 Q1014 NOSIG
22:00
V
20 °C 10 km+ - 280° 280° 4 kt METAR LFBD 172000Z AUTO 28004KT CAVOK 20/15 Q1014 NOSIG
21:30
V
20 °C 10 km+ - 290° 290° 6 kt METAR LFBD 171930Z AUTO 29006KT 270V340 CAVOK 20/15 Q1014 NOSIG
21:00
V
21 °C 10 km+ - 290° 290° 8 kt METAR LFBD 171900Z AUTO 29008KT CAVOK 21/14 Q1013 NOSIG
20:30
V
22 °C 10 km+ - 280° 280° 10 kt METAR LFBD 171830Z AUTO 28010KT CAVOK 22/14 Q1013 NOSIG
20:00
V
22 °C 10 km+ - 300° 300° 10 kt METAR LFBD 171800Z AUTO 30010KT 9999 FEW039 22/14 Q1013 NOSIG
19:30
V
24 °C 10 km+ - 290° 290° 11 kt METAR LFBD 171730Z AUTO 29011KT CAVOK 24/13 Q1013 NOSIG
19:00
V
24 °C 10 km+ - 290° 290° 11 kt METAR LFBD 171700Z AUTO 29011KT 9999 FEW047 24/13 Q1012 NOSIG
18:30
V
25 °C 10 km+ 4.900 ft 280° 280° 10 kt METAR LFBD 171630Z AUTO 28010KT 9999 BKN049 BKN060 25/14 Q1012 NOSIG
18:00
V
23 °C 10 km+ - 250° 250° 7 kt METAR LFBD 171600Z AUTO 25007KT 180V290 CAVOK 23/16 Q1012 NOSIG
17:30
V
24 °C 10 km+ - 240° 240° 6 kt METAR LFBD 171530Z AUTO 24006KT 190V280 CAVOK 24/15 Q1012 NOSIG
17:00
V
23 °C 10 km+ - 200° 200° 6 kt METAR LFBD 171500Z AUTO 20006KT 170V240 9999 FEW043/// SCT096/// ///TCU 23/16 Q1012 BECMG NSC
16:30
V
21 °C 10 km+ - 180° 180° 5 kt METAR LFBD 171430Z AUTO 18005KT 160V220 9999 //////CB 21/17 Q1012 BECMG NSC
16:00
V
21 °C 10 km+ 7.800 ft 170° 170° 5 kt METAR LFBD 171400Z AUTO 17005KT 9999 FEW046/// BKN078/// BKN098/// //////CB 21/18 Q1012 TEMPO 4000 SHRA BECMG 27010KT NSC
15:30
V
20 °C 10 km+ 6.600 ft 170° 170° 3 kt METAR LFBD 171330Z AUTO 17003KT 140V210 9999 -RA FEW025/// BKN066/// BKN086/// ///CB 20/17 Q1012 TEMPO 4000 SHRA BECMG 27010KT NSC
15:00
I
20 °C 2,8 km 4.400 ft Var Var 2 kt METAR LFBD 171300Z AUTO VRB02KT 2800 R29/1400D +RA BR FEW028/// SCT036/// BKN044/// //////CB 20/17 Q1012 TEMPO 4000 SHRA
14:30
V
22 °C 10 km+ 4.100 ft 170° 170° 5 kt METAR LFBD 171230Z AUTO 17005KT 130V240 9999 SCT034/// BKN041/// BKN056/// ///CB 22/16 Q1012 TEMPO 4000 SHRA
14:00
V
24 °C 10 km+ 3.600 ft Var Var 3 kt METAR LFBD 171200Z AUTO VRB03KT 9999 BKN036/// BKN062/// BKN080/// //////CB 24/15 Q1011 TEMPO 2500 TSRA
13:30
V
23 °C 10 km+ 10.000 ft 280° 280° 4 kt METAR LFBD 171130Z AUTO 28004KT 210V010 9999 FEW031/// SCT037/// BKN100/// //////CB 23/15 Q1012 TEMPO 2500 TSRA
13:00
V
23 °C 10 km+ 13.000 ft 220° 220° 6 kt METAR LFBD 171100Z AUTO 22006KT 180V260 9999 FEW025/// SCT031/// BKN130/// ///CB 23/16 Q1012 TEMPO 2500 TSRA
12:30
M
22 °C 10 km+ 2.100 ft 270° 270° 7 kt METAR LFBD 171030Z AUTO 27007KT 220V300 9999 BKN021/// BKN033/// BKN100/// //////CB 22/16 Q1012 TEMPO 2500 TSRA
12:00
V
21 °C 10 km+ 4.000 ft 250° 250° 8 kt METAR LFBD 171000Z AUTO 25008KT 220V280 9999 SCT016/// BKN040/// BKN076/// //////CB 21/17 Q1012 TEMPO 2500 TSRA
11:30
V
22 °C 10 km+ 5.800 ft 260° 260° 9 kt METAR LFBD 170930Z AUTO 26009KT 230V290 9999 FEW018/// BKN058/// BKN076/// ///CB 22/17 Q1011 TEMPO 2500 TSRA
11:00
V
21 °C 10 km+ 6.600 ft 260° 260° 8 kt METAR LFBD 170900Z AUTO 26008KT 9999 FEW013/// BKN066/// OVC090/// //////CB 21/16 Q1011 TEMPO 2500 TSRA
10:30
V
20 °C 10 km+ 10.000 ft 240° 240° 11 kt METAR LFBD 170830Z AUTO 24011KT 200V260 9999 SCT012/// SCT048/// BKN100/// ///TCU 20/18 Q1011 TEMPO 2500 TSRA SCT008 BKN030CB
10:00
V
19 °C 10 km+ 12.000 ft 210° 210° 7 kt METAR LFBD 170800Z AUTO 21007KT 9999 FEW009/// BKN120/// BKN170/// ///TCU 19/17 Q1011 TEMPO 2500 TSRA SCT008 BKN030CB
09:30
V
18 °C 10 km+ - 200° 200° 6 kt METAR LFBD 170730Z AUTO 20006KT 180V240 9999 //////CB 18/16 Q1011 TEMPO 2500 TSRA
09:00
V
17 °C 10 km+ - 190° 190° 5 kt METAR LFBD 170700Z AUTO 19005KT 9999 //////CB 17/16 Q1010 TEMPO 2500 TSRA
08:30
V
17 °C 10 km+ - 180° 180° 7 kt METAR LFBD 170630Z AUTO 18007KT 9999 //////TCU 17/16 Q1010 TEMPO 2500 TSRA SCT008 BKN030CB
08:00
V
17 °C 10 km+ - 180° 180° 7 kt METAR LFBD 170600Z AUTO 18007KT 9999 ///CB 17/16 Q1010 TEMPO 2500 TSRA
07:30
V
17 °C 10 km+ - 180° 180° 6 kt METAR LFBD 170530Z AUTO 18006KT 9999 -RA //////CB 17/15 Q1010 TEMPO 2500 TSRA
07:00
V
17 °C 10 km+ - 180° 180° 6 kt METAR LFBD 170500Z AUTO 18006KT 9999 ///TCU 17/15 Q1010 TEMPO 2500 TSRA SCT008 BKN030CB
06:30
V
17 °C 10 km+ - 180° 180° 6 kt METAR LFBD 170430Z AUTO 18006KT 9999 //////CB 17/15 Q1010 TEMPO 2500 TSRA
06:00
V
17 °C 10 km+ - Var Var 2 kt METAR LFBD 170400Z AUTO VRB02KT 9999 //////CB 17/15 Q1010 TEMPO 2500 TSRA
05:30
V
17 °C 10 km+ 9.800 ft 190° 190° 4 kt METAR LFBD 170330Z AUTO 19004KT 160V220 9999 FEW011/// BKN098/// BKN110/// //////CB 17/15 Q1010 TEMPO 2500 TSRA
05:00
V
18 °C 10 km+ - 160° 160° 6 kt METAR LFBD 170300Z AUTO 16006KT 9999 //////CB 18/15 Q1010 TEMPO 2500 TSRA
04:30
V
17 °C 10 km+ - 180° 180° 6 kt METAR LFBD 170230Z AUTO 18006KT 9999 //////TCU 17/15 Q1010 TEMPO 2500 TSRA SCT008 BKN030CB
04:00
V
18 °C 10 km+ - 190° 190° 5 kt METAR LFBD 170200Z AUTO 19005KT 9999 //////CB 18/15 Q1010 TEMPO 2500 TSRA
03:30
V
18 °C 10 km+ - 190° 190° 5 kt METAR LFBD 170130Z AUTO 19005KT 9999 ///TCU 18/15 Q1010 TEMPO 2500 TSRA SCT008 BKN030CB
03:00
V
18 °C 10 km+ - 200° 200° 6 kt METAR LFBD 170100Z AUTO 20006KT 9999 //////TCU 18/15 Q1010 TEMPO 2500 TSRA SCT008 BKN030CB
02:30
V
19 °C 10 km+ - 170° 170° 4 kt METAR LFBD 170030Z AUTO 17004KT CAVOK 19/15 Q1010 TEMPO 2500 TSRA SCT008 BKN030CB
02:00
V
19 °C 10 km+ - 230° 230° 4 kt METAR LFBD 170000Z AUTO 23004KT CAVOK 19/16 Q1010 TEMPO 4000 SHRA BKN035TCU
01:30
V
19 °C 10 km+ - 230° 230° 4 kt METAR LFBD 162330Z AUTO 23004KT CAVOK 19/16 Q1010 TEMPO 4000 SHRA BKN035TCU
01:00
V
19 °C 10 km+ - 270° 270° 7 kt METAR LFBD 162300Z AUTO 27007KT CAVOK 19/16 Q1010 TEMPO 4000 SHRA BKN040CB
00:30
V
20 °C 10 km+ - 260° 260° 4 kt METAR LFBD 162230Z AUTO 26004KT 9999 //////CB 20/16 Q1010 TEMPO 4000 SHRA
00:00
V
20 °C 10 km+ - 240° 240° 6 kt METAR LFBD 162200Z AUTO 24006KT 9999 VCTS ///CB 20/16 Q1010 TEMPO 4000 SHRA

16 de agosto de 2022

Hora Código Tiempo Temp. Visibilidad Cielo nuboso Viento METAR/SPECI
23:30
V
20 °C 10 km+ - 290° 290° 4 kt METAR LFBD 162130Z AUTO 29004KT 9999 //////CB 20/16 Q1009 TEMPO 4000 SHRA
23:00
V
21 °C 10 km+ - 260° 260° 4 kt METAR LFBD 162100Z AUTO 26004KT 9999 ///CB 21/16 Q1010 TEMPO 4000 SHRA
22:30
V
21 °C 10 km+ - 270° 270° 7 kt METAR LFBD 162030Z AUTO 27007KT 9999 //////TCU 21/16 Q1011 TEMPO 4000 SHRA
22:00
V
22 °C 10 km+ - 260° 260° 5 kt METAR LFBD 162000Z AUTO 26005KT 230V290 CAVOK 22/16 Q1010 TEMPO 4000 SHRA BKN040TCU
21:30
V
22 °C 10 km+ - 270° 270° 9 kt METAR LFBD 161930Z AUTO 27009KT CAVOK 22/15 Q1010 TEMPO 4000 SHRA BKN040TCU
21:00
V
23 °C 10 km+ - 270° 270° 10 kt METAR LFBD 161900Z AUTO 27010KT CAVOK 23/15 Q1009 TEMPO 4000 SHRA BKN040TCU
20:30
V
24 °C 10 km+ - 280° 280° 9 kt METAR LFBD 161830Z AUTO 28009KT CAVOK 24/14 Q1009 TEMPO 4000 SHRA BKN040TCU
20:00
V
25 °C 10 km+ - 270° 270° 9 kt METAR LFBD 161800Z AUTO 27009KT 9999 FEW043 SCT110 25/14 Q1008 TEMPO 4000 SHRA BKN040TCU
19:30
V
26 °C 10 km+ - 290° 290° 6 kt METAR LFBD 161730Z AUTO 29006KT 250V330 CAVOK 26/15 Q1008 TEMPO 4000 SHRA BKN040TCU
19:00
V
25 °C 10 km+ - 300° 300° 6 kt METAR LFBD 161700Z AUTO 30006KT 270V340 CAVOK 25/14 Q1008 TEMPO 4000 SHRA BKN040TCU
18:30
V
26 °C 10 km+ - 320° 320° 8 kt METAR LFBD 161630Z AUTO 32008KT 280V010 CAVOK 26/16 Q1008 TEMPO 4000 SHRA BKN040TCU
18:00
V
27 °C 10 km+ - 320° 320° 10 kt METAR LFBD 161600Z AUTO 32010KT CAVOK 27/16 Q1008 TEMPO 4000 SHRA BKN040TCU
17:30
V
27 °C 10 km+ - 300° 300° 10 kt METAR LFBD 161530Z AUTO 30010KT 270V330 9999 FEW042 SCT110 27/16 Q1008 TEMPO 4000 SHRA BKN040TCU
17:00
V
27 °C 10 km+ - 280° 280° 10 kt METAR LFBD 161500Z AUTO 28010KT 9999 FEW044 SCT054 27/17 Q1008 TEMPO 4000 SHRA BKN040TCU
Datos más antiguos

Nosotros y terceros seguimos tu comportamiento en Internet en nuestro sitio web con cookies. Si continúas, asumimos que estás de acuerdo con nuestra política de cookies. Más información